Urban, Pennsylvania
Current Conditions -  °F | °C
As of 12:53 PM on Thursday 23 Oct 2014 (Local Time) from KSEG Reporting Station
Overcast Overcast  
Wind Chill: 58°   Ceiling: 3100
Heat Index: 58°   Visibility: 10mi
Dew Point: 44°   Wind: 13mph
Humidity: 60%   Direction: 340°NNW
Pressure: 29.88"   Gusts: 30mph
Location:  40.6872°N, 76.7831°W
Report Text: KSEG 231653Z AUTO 34011G26KT 10SM OVC031 14/07 A2988 RMK AO2 PK WND 33029/1625 SLP118 T01440067
Loading
Personal Weather Stations






























Interactive Weather Map
Tropical Storm Tracking
New forecast layout! Learn more

10-Day Weather Forecast

Advertisements
Track Severe Weather on mobile